createdAt,value
2023-02-14T00:01:11.590Z,20.75
2023-02-14T00:03:38.479Z,20.48
2023-02-14T00:06:15.439Z,20.40
2023-02-14T00:08:44.739Z,19.27
2023-02-14T00:11:13.289Z,20.20
2023-02-14T00:14:00.356Z,19.92
2023-02-14T00:16:27.189Z,20.30
2023-02-14T00:19:05.924Z,20.83
2023-02-14T00:21:36.093Z,19.98
2023-02-14T00:24:10.677Z,20.15
2023-02-14T00:26:38.703Z,20.17
2023-02-14T00:29:12.814Z,20.02
2023-02-14T00:31:40.852Z,19.45
2023-02-14T00:34:09.337Z,18.88
2023-02-14T00:36:37.057Z,19.08
2023-02-14T00:39:06.673Z,18.73
2023-02-14T00:41:34.236Z,19.52
2023-02-14T00:44:01.990Z,18.83
2023-02-14T00:46:29.450Z,18.88
2023-02-14T00:48:56.696Z,20.02
2023-02-14T00:51:23.907Z,18.63
2023-02-14T00:53:51.724Z,19.30
2023-02-14T00:56:20.179Z,18.35
2023-02-14T00:58:47.541Z,19.50
2023-02-14T01:01:16.281Z,19.27
2023-02-14T01:03:43.128Z,18.50
2023-02-14T01:06:10.217Z,19.20
2023-02-14T01:08:37.090Z,19.50
2023-02-14T01:11:10.374Z,18.73
2023-02-14T01:13:37.451Z,18.10
2023-02-14T01:16:11.311Z,20.42
2023-02-14T01:18:39.403Z,19.65
2023-02-14T01:21:19.274Z,20.40
2023-02-14T01:23:48.322Z,20.25
2023-02-14T01:26:16.129Z,18.83
2023-02-14T01:28:44.442Z,21.63
2023-02-14T01:31:22.160Z,19.70
2023-02-14T01:33:51.165Z,19.55
2023-02-14T01:36:28.892Z,19.67
2023-02-14T01:39:00.509Z,19.92
2023-02-14T01:41:33.314Z,19.27
2023-02-14T01:44:27.574Z,20.23
2023-02-14T01:46:56.318Z,19.95
2023-02-14T01:49:31.775Z,19.25
2023-02-14T01:52:06.267Z,19.00
2023-02-14T01:54:40.500Z,17.98
2023-02-14T01:57:13.522Z,18.88
2023-02-14T01:59:48.165Z,18.83
2023-02-14T02:02:14.965Z,18.92
2023-02-14T02:04:46.664Z,18.85
2023-02-14T02:07:23.689Z,18.90
2023-02-14T02:10:00.934Z,19.08
2023-02-14T02:12:30.777Z,19.08
2023-02-14T02:15:00.362Z,20.30
2023-02-14T02:17:46.234Z,19.40
2023-02-14T02:20:40.234Z,19.00
2023-02-14T02:23:42.101Z,18.38
2023-02-14T02:26:32.622Z,18.83
2023-02-14T02:29:20.423Z,18.92
2023-02-14T02:32:26.838Z,17.63
2023-02-14T02:35:31.578Z,19.02
2023-02-14T02:38:38.742Z,19.73
2023-02-14T02:41:11.485Z,18.75
2023-02-14T02:43:53.588Z,18.50
2023-02-14T02:47:02.633Z,19.13
2023-02-14T02:50:21.062Z,18.08
2023-02-14T02:53:10.585Z,18.83
2023-02-14T02:56:28.140Z,18.80
2023-02-14T02:59:04.957Z,18.35
2023-02-14T03:01:37.628Z,19.23
2023-02-14T03:04:30.144Z,18.80
2023-02-14T03:06:58.682Z,17.42
2023-02-14T03:09:28.676Z,19.80
2023-02-14T03:12:22.004Z,17.98
2023-02-14T03:15:51.886Z,18.98
2023-02-14T03:18:49.806Z,18.42
2023-02-14T03:21:28.754Z,18.77
2023-02-14T03:24:27.285Z,19.02
2023-02-14T03:27:18.441Z,18.38
2023-02-14T03:30:21.407Z,19.13
2023-02-14T03:33:01.325Z,18.25
2023-02-14T03:36:10.188Z,18.17
2023-02-14T03:38:49.912Z,18.55
2023-02-14T03:41:25.312Z,18.63
2023-02-14T03:43:59.345Z,18.45
2023-02-14T03:46:33.564Z,19.23
2023-02-14T03:49:06.837Z,17.77
2023-02-14T03:51:36.270Z,19.60
2023-02-14T03:54:09.339Z,19.30
2023-02-14T03:57:17.740Z,18.48
2023-02-14T03:59:44.732Z,18.20
2023-02-14T04:02:25.044Z,19.55
2023-02-14T04:04:53.969Z,19.70
2023-02-14T04:07:23.881Z,17.95
2023-02-14T04:09:51.569Z,18.85
2023-02-14T04:12:26.447Z,18.92
2023-02-14T04:14:59.204Z,19.67
2023-02-14T04:17:44.672Z,19.55
2023-02-14T04:20:11.782Z,18.80
2023-02-14T04:22:38.549Z,18.90
2023-02-14T04:25:05.707Z,18.88
2023-02-14T04:27:32.555Z,17.67
2023-02-14T04:29:59.426Z,18.35
2023-02-14T04:32:26.306Z,18.83
2023-02-14T04:34:53.536Z,18.42
2023-02-14T04:37:20.505Z,18.70
2023-02-14T04:39:47.357Z,17.08
2023-02-14T04:42:15.346Z,18.77
2023-02-14T04:44:42.141Z,16.90
2023-02-14T04:47:09.514Z,18.00
2023-02-14T04:49:36.806Z,18.13
2023-02-14T04:52:04.660Z,18.58
2023-02-14T04:54:31.613Z,17.55
2023-02-14T04:56:58.496Z,16.73
2023-02-14T04:59:26.424Z,18.05
2023-02-14T05:01:53.891Z,16.95
2023-02-14T05:04:21.100Z,16.60
2023-02-14T05:06:47.960Z,17.58
2023-02-14T05:09:14.889Z,18.02
2023-02-14T05:11:42.052Z,17.40
2023-02-14T05:14:09.517Z,16.25
2023-02-14T05:16:36.631Z,16.83
2023-02-14T05:19:03.573Z,16.85
2023-02-14T05:21:33.054Z,15.98
2023-02-14T05:24:02.834Z,17.83
2023-02-14T05:26:29.744Z,16.67
2023-02-14T05:28:57.269Z,17.08
2023-02-14T05:31:24.318Z,16.65
2023-02-14T05:33:51.256Z,16.38
2023-02-14T05:36:18.117Z,15.70
2023-02-14T05:38:44.891Z,16.88
2023-02-14T05:41:11.765Z,16.63
2023-02-14T05:43:38.900Z,18.13
2023-02-14T05:46:05.899Z,16.88
2023-02-14T05:48:33.757Z,17.77
2023-02-14T05:51:10.051Z,16.52
2023-02-14T05:53:37.461Z,16.08
2023-02-14T05:56:04.730Z,16.17
2023-02-14T05:58:32.084Z,16.23
2023-02-14T06:01:00.114Z,16.38
2023-02-14T06:03:27.954Z,16.65
2023-02-14T06:05:54.933Z,16.55
2023-02-14T06:08:21.825Z,16.77
2023-02-14T06:10:48.695Z,16.52
2023-02-14T06:13:15.758Z,16.33
2023-02-14T06:15:42.594Z,16.55
2023-02-14T06:18:09.635Z,15.90
2023-02-14T06:20:37.021Z,17.20
2023-02-14T06:23:04.274Z,15.63
2023-02-14T06:25:32.927Z,16.50
2023-02-14T06:27:59.760Z,16.00
2023-02-14T06:30:27.847Z,17.42
2023-02-14T06:32:54.769Z,16.13
2023-02-14T06:35:22.194Z,16.40
2023-02-14T06:37:49.070Z,16.42
2023-02-14T06:40:16.032Z,15.40
2023-02-14T06:42:43.169Z,15.82
2023-02-14T06:45:10.570Z,16.90
2023-02-14T06:47:37.812Z,16.95
2023-02-14T06:50:05.490Z,16.98
2023-02-14T06:52:34.041Z,16.60
2023-02-14T06:55:00.921Z,16.48
2023-02-14T06:57:28.173Z,15.70
2023-02-14T06:59:54.932Z,16.35
2023-02-14T07:02:24.753Z,15.88
2023-02-14T07:04:51.927Z,16.15
2023-02-14T07:07:18.784Z,16.77
2023-02-14T07:09:45.624Z,16.65
2023-02-14T07:12:12.380Z,16.98
2023-02-14T07:14:39.276Z,16.75
2023-02-14T07:17:06.129Z,15.75
2023-02-14T07:19:32.933Z,14.93
2023-02-14T07:21:59.836Z,16.08
2023-02-14T07:24:27.262Z,15.85
2023-02-14T07:26:54.082Z,16.60
2023-02-14T07:29:21.046Z,16.40
2023-02-14T07:31:48.004Z,15.77
2023-02-14T07:34:14.870Z,15.68
2023-02-14T07:36:41.858Z,16.98
2023-02-14T07:39:08.706Z,16.25
2023-02-14T07:41:35.685Z,15.35
2023-02-14T07:44:06.101Z,15.80
2023-02-14T07:46:32.930Z,15.35
2023-02-14T07:48:59.859Z,15.98
2023-02-14T07:51:26.751Z,16.00
2023-02-14T07:53:53.594Z,16.52
2023-02-14T07:56:20.528Z,15.93
2023-02-14T07:58:47.402Z,16.88
2023-02-14T08:01:14.485Z,15.57
2023-02-14T08:03:44.322Z,16.42
2023-02-14T08:06:11.496Z,17.10
2023-02-14T08:08:38.421Z,16.55
2023-02-14T08:11:05.537Z,17.00
2023-02-14T08:13:32.648Z,17.98
2023-02-14T08:16:05.956Z,18.20
2023-02-14T08:18:39.682Z,17.88
2023-02-14T08:21:09.464Z,18.23
2023-02-14T08:23:38.103Z,17.63
2023-02-14T08:26:05.429Z,19.83
2023-02-14T08:28:33.076Z,19.52
2023-02-14T08:31:01.013Z,19.25
2023-02-14T08:33:28.639Z,19.90
2023-02-14T08:35:55.804Z,20.35
2023-02-14T08:38:22.877Z,20.10
2023-02-14T08:40:49.760Z,21.35
2023-02-14T08:43:16.869Z,21.88
2023-02-14T08:45:43.753Z,22.52
2023-02-14T08:48:12.912Z,23.83
2023-02-14T08:50:40.750Z,22.95
2023-02-14T08:53:13.148Z,23.75
2023-02-14T08:55:40.470Z,23.27
2023-02-14T08:58:07.961Z,24.90
2023-02-14T09:00:35.148Z,23.25
2023-02-14T09:03:04.751Z,24.15
2023-02-14T09:05:33.366Z,25.27
2023-02-14T09:08:02.108Z,23.92
2023-02-14T09:10:28.973Z,23.70
2023-02-14T09:12:55.874Z,25.25
2023-02-14T09:15:22.730Z,25.67
2023-02-14T09:17:51.025Z,25.98
2023-02-14T09:20:18.229Z,24.25
2023-02-14T09:22:46.127Z,25.17
2023-02-14T09:25:14.585Z,25.83
2023-02-14T09:27:41.499Z,25.65
2023-02-14T09:30:10.035Z,26.13
2023-02-14T09:32:36.919Z,26.20
2023-02-14T09:35:04.264Z,25.75
2023-02-14T09:37:49.698Z,26.08
2023-02-14T09:40:20.234Z,26.60
2023-02-14T09:43:04.948Z,25.25
2023-02-14T09:45:34.206Z,25.67
2023-02-14T09:48:16.081Z,24.52
2023-02-14T09:50:51.300Z,24.27
2023-02-14T09:53:36.907Z,24.80
2023-02-14T09:56:51.413Z,25.10
2023-02-14T09:59:35.765Z,24.73
2023-02-14T10:02:35.013Z,26.60
2023-02-14T10:05:06.343Z,25.20
2023-02-14T10:07:56.274Z,26.10
2023-02-14T10:10:46.356Z,24.48
2023-02-14T10:13:58.999Z,25.05
2023-02-14T10:16:37.499Z,25.83
2023-02-14T10:19:25.891Z,26.10
2023-02-14T10:22:00.603Z,25.05
2023-02-14T10:24:50.624Z,25.13
2023-02-14T10:27:39.598Z,24.45
2023-02-14T10:30:16.842Z,22.70
2023-02-14T10:33:10.722Z,24.02
2023-02-14T10:35:55.800Z,23.35
2023-02-14T10:38:55.010Z,23.60
2023-02-14T10:41:33.734Z,21.73
2023-02-14T10:44:17.527Z,22.73
2023-02-14T10:47:02.402Z,22.45
2023-02-14T10:49:58.020Z,22.35
2023-02-14T10:52:58.885Z,22.25
2023-02-14T10:56:11.793Z,22.75
2023-02-14T10:58:41.715Z,22.30
2023-02-14T11:01:17.200Z,21.73
2023-02-14T11:04:03.476Z,23.02
2023-02-14T11:06:31.228Z,23.08
2023-02-14T11:08:58.433Z,23.92
2023-02-14T11:11:43.319Z,22.77
2023-02-14T11:14:29.962Z,22.92
2023-02-14T11:16:59.649Z,24.05
2023-02-14T11:19:38.723Z,23.92
2023-02-14T11:22:05.957Z,23.58
2023-02-14T11:24:42.122Z,23.38
2023-02-14T11:27:11.739Z,24.50
2023-02-14T11:29:41.363Z,24.92
2023-02-14T11:32:10.938Z,24.42
2023-02-14T11:34:41.858Z,24.73
2023-02-14T11:37:28.267Z,25.38
2023-02-14T11:39:59.516Z,24.25
2023-02-14T11:42:43.043Z,24.13
2023-02-14T11:45:34.643Z,25.10
2023-02-14T11:48:37.282Z,24.13
2023-02-14T11:51:14.222Z,24.10
2023-02-14T11:54:00.570Z,24.73
2023-02-14T11:56:55.449Z,23.80
2023-02-14T11:59:32.635Z,22.45
2023-02-14T12:02:14.028Z,23.23
2023-02-14T12:04:46.955Z,23.67
2023-02-14T12:07:25.773Z,24.20
2023-02-14T12:10:17.191Z,23.95
2023-02-14T12:13:08.133Z,23.23
2023-02-14T12:15:37.925Z,24.85
2023-02-14T12:18:25.883Z,23.02
2023-02-14T12:21:03.559Z,23.23
2023-02-14T12:23:38.781Z,23.48
2023-02-14T12:26:38.861Z,23.50
2023-02-14T12:29:29.356Z,24.13
2023-02-14T12:32:05.692Z,23.77
2023-02-14T12:34:33.771Z,22.40
2023-02-14T12:37:05.876Z,22.40
2023-02-14T12:39:59.425Z,21.50
2023-02-14T12:42:51.934Z,21.60
2023-02-14T12:46:18.502Z,21.33
2023-02-14T12:49:18.599Z,21.25
2023-02-14T12:52:33.557Z,20.17
2023-02-14T12:55:58.260Z,20.17
2023-02-14T12:59:12.907Z,20.23
2023-02-14T13:02:02.991Z,19.92
2023-02-14T13:04:49.976Z,21.83
2023-02-14T13:07:19.751Z,22.10
2023-02-14T13:10:15.531Z,20.73
2023-02-14T13:12:57.814Z,20.55
2023-02-14T13:15:37.677Z,21.77
2023-02-14T13:18:54.494Z,21.77
2023-02-14T13:21:28.861Z,20.98
2023-02-14T13:24:13.206Z,20.08
2023-02-14T13:26:45.753Z,20.33
2023-02-14T13:29:26.113Z,21.35
2023-02-14T13:32:01.102Z,23.20
2023-02-14T13:34:36.862Z,21.45
2023-02-14T13:37:10.442Z,20.77
2023-02-14T13:40:04.490Z,21.70
2023-02-14T13:42:51.436Z,21.52
2023-02-14T13:45:32.388Z,21.75
2023-02-14T13:48:12.885Z,22.38
2023-02-14T13:50:55.660Z,21.38
2023-02-14T13:53:45.345Z,19.40
2023-02-14T13:56:12.175Z,20.95
2023-02-14T13:59:04.505Z,20.80
2023-02-14T14:01:33.329Z,20.40
2023-02-14T14:04:23.529Z,20.50
2023-02-14T14:07:08.629Z,22.27
2023-02-14T14:09:44.309Z,21.25
2023-02-14T14:12:29.307Z,20.20
2023-02-14T14:15:05.220Z,21.08
2023-02-14T14:17:50.567Z,20.88
2023-02-14T14:20:20.157Z,20.17
2023-02-14T14:22:49.941Z,21.48
2023-02-14T14:25:41.695Z,19.60
2023-02-14T14:28:31.749Z,20.88
2023-02-14T14:30:58.956Z,21.25
2023-02-14T14:33:29.243Z,20.75
2023-02-14T14:36:08.322Z,21.13
2023-02-14T14:38:48.319Z,21.45
2023-02-14T14:41:15.318Z,21.20
2023-02-14T14:43:42.662Z,21.27
2023-02-14T14:46:13.023Z,20.42
2023-02-14T14:48:40.894Z,21.38
2023-02-14T14:51:20.095Z,20.77
2023-02-14T14:53:56.847Z,21.20
2023-02-14T14:56:30.986Z,20.92
2023-02-14T14:59:15.212Z,19.63
2023-02-14T15:01:48.167Z,20.92
2023-02-14T15:04:19.380Z,21.52
2023-02-14T15:06:48.372Z,20.73
2023-02-14T15:09:23.601Z,21.08
2023-02-14T15:12:11.829Z,21.80
2023-02-14T15:14:46.049Z,20.30
2023-02-14T15:17:26.336Z,21.92
2023-02-14T15:20:01.599Z,21.27
2023-02-14T15:22:37.049Z,21.35
2023-02-14T15:25:18.174Z,21.35
2023-02-14T15:27:46.025Z,21.58
2023-02-14T15:30:25.017Z,20.73
2023-02-14T15:32:54.160Z,20.55
2023-02-14T15:35:30.505Z,21.30
2023-02-14T15:38:01.922Z,22.25
2023-02-14T15:40:33.130Z,21.70
2023-02-14T15:43:18.180Z,20.35
2023-02-14T15:45:52.938Z,21.25
2023-02-14T15:48:34.325Z,20.35
2023-02-14T15:51:04.947Z,21.55
2023-02-14T15:54:01.309Z,21.70
2023-02-14T15:56:40.695Z,20.67
2023-02-14T15:59:18.321Z,21.40
2023-02-14T16:02:04.120Z,21.13
2023-02-14T16:04:35.462Z,20.55
2023-02-14T16:07:29.931Z,20.50
2023-02-14T16:10:24.411Z,20.77
2023-02-14T16:13:14.730Z,20.60
2023-02-14T16:16:00.490Z,21.05
2023-02-14T16:18:47.430Z,20.17
2023-02-14T16:21:17.701Z,20.63
2023-02-14T16:24:04.972Z,19.92
2023-02-14T16:26:32.761Z,19.67
2023-02-14T16:29:03.603Z,20.20
2023-02-14T16:31:31.522Z,20.27
2023-02-14T16:33:58.650Z,19.10
2023-02-14T16:36:32.953Z,20.77
2023-02-14T16:39:04.992Z,18.92
2023-02-14T16:41:34.682Z,19.60
2023-02-14T16:44:01.690Z,19.17
2023-02-14T16:46:35.754Z,19.00
2023-02-14T16:49:02.717Z,20.00
2023-02-14T16:51:33.264Z,19.65
2023-02-14T16:54:07.362Z,20.05
2023-02-14T16:56:51.826Z,20.42
2023-02-14T16:59:18.961Z,20.48
2023-02-14T17:01:45.990Z,19.42
2023-02-14T17:04:13.168Z,20.95
2023-02-14T17:06:47.076Z,19.75
2023-02-14T17:09:19.906Z,19.98
2023-02-14T17:11:50.772Z,20.00
2023-02-14T17:14:24.566Z,20.98
2023-02-14T17:16:52.546Z,20.27
2023-02-14T17:19:19.654Z,20.77
2023-02-14T17:21:46.845Z,22.55
2023-02-14T17:24:13.739Z,22.55
2023-02-14T17:26:40.574Z,22.85
2023-02-14T17:29:07.436Z,22.45
2023-02-14T17:31:35.029Z,23.48
2023-02-14T17:34:02.120Z,23.13
2023-02-14T17:36:30.466Z,23.05
2023-02-14T17:38:57.217Z,23.30
2023-02-14T17:41:26.452Z,22.10
2023-02-14T17:43:54.798Z,21.40
2023-02-14T17:46:22.040Z,22.73
2023-02-14T17:48:49.503Z,21.58
2023-02-14T17:51:20.133Z,21.83
2023-02-14T17:53:48.215Z,21.25
2023-02-14T17:56:22.540Z,21.65
2023-02-14T17:58:51.671Z,21.52
2023-02-14T18:01:24.001Z,20.42
2023-02-14T18:03:52.988Z,22.02
2023-02-14T18:06:20.606Z,20.92
2023-02-14T18:08:50.362Z,20.90
2023-02-14T18:11:20.416Z,21.75
2023-02-14T18:13:47.689Z,21.45
2023-02-14T18:16:17.723Z,21.90
2023-02-14T18:18:45.630Z,22.13
2023-02-14T18:21:15.807Z,21.88
2023-02-14T18:23:43.456Z,22.13
2023-02-14T18:26:13.728Z,22.10
2023-02-14T18:28:41.133Z,22.02
2023-02-14T18:31:15.243Z,21.25
2023-02-14T18:33:43.370Z,23.83
2023-02-14T18:36:14.298Z,22.90
2023-02-14T18:38:44.156Z,23.05
2023-02-14T18:41:15.290Z,21.48
2023-02-14T18:43:43.463Z,23.17
2023-02-14T18:46:19.664Z,23.30
2023-02-14T18:48:47.223Z,21.80
2023-02-14T18:51:21.588Z,23.02
2023-02-14T18:53:52.088Z,23.92
2023-02-14T18:56:23.718Z,24.50
2023-02-14T18:59:02.077Z,22.95
2023-02-14T19:01:32.653Z,22.10
2023-02-14T19:04:01.052Z,21.67
2023-02-14T19:06:31.030Z,23.00
2023-02-14T19:08:58.996Z,24.75
2023-02-14T19:11:31.330Z,24.02
2023-02-14T19:14:01.176Z,25.10
2023-02-14T19:16:33.815Z,24.60
2023-02-14T19:19:02.492Z,26.40
2023-02-14T19:21:33.738Z,25.85
2023-02-14T19:24:03.237Z,26.58
2023-02-14T19:26:34.946Z,27.35
2023-02-14T19:29:06.157Z,27.67
2023-02-14T19:31:37.329Z,27.30
2023-02-14T19:34:06.629Z,27.65
2023-02-14T19:36:37.497Z,28.45
2023-02-14T19:39:05.112Z,29.42
2023-02-14T19:41:36.994Z,30.20
2023-02-14T19:44:06.729Z,31.48
2023-02-14T19:46:34.851Z,32.90
2023-02-14T19:49:01.975Z,30.95
2023-02-14T19:51:35.940Z,30.65
2023-02-14T19:54:07.189Z,29.05
2023-02-14T19:56:37.988Z,27.60
2023-02-14T19:59:09.141Z,25.77
2023-02-14T20:01:46.489Z,25.98
2023-02-14T20:04:20.753Z,27.08
2023-02-14T20:06:48.634Z,26.92
2023-02-14T20:09:17.226Z,30.10
2023-02-14T20:11:49.870Z,31.92
2023-02-14T20:14:20.801Z,30.67
2023-02-14T20:16:49.332Z,30.55
2023-02-14T20:19:20.117Z,29.95
2023-02-14T20:21:49.949Z,28.33
2023-02-14T20:24:23.510Z,28.13
2023-02-14T20:26:52.607Z,28.10
2023-02-14T20:29:21.942Z,28.45
2023-02-14T20:31:52.228Z,28.40
2023-02-14T20:34:19.937Z,28.55
2023-02-14T20:36:52.828Z,27.77
2023-02-14T20:39:22.145Z,27.90
2023-02-14T20:41:50.284Z,27.23
2023-02-14T20:44:21.214Z,27.95
2023-02-14T20:46:55.624Z,26.60
2023-02-14T20:49:27.041Z,28.08
2023-02-14T20:51:54.522Z,26.73
2023-02-14T20:54:25.027Z,26.73
2023-02-14T20:56:53.068Z,26.88
2023-02-14T20:59:26.762Z,27.67
2023-02-14T21:01:56.405Z,26.13
2023-02-14T21:04:24.047Z,26.30
2023-02-14T21:06:50.983Z,28.50
2023-02-14T21:09:20.281Z,34.55
2023-02-14T21:11:47.089Z,40.30
2023-02-14T21:14:13.877Z,40.15
2023-02-14T21:16:40.648Z,40.33
2023-02-14T21:19:07.493Z,39.38
2023-02-14T21:21:37.588Z,38.83
2023-02-14T21:24:11.540Z,39.05
2023-02-14T21:26:39.330Z,39.45
2023-02-14T21:29:07.108Z,37.15
2023-02-14T21:31:35.312Z,32.72
2023-02-14T21:34:03.156Z,29.30
2023-02-14T21:36:35.491Z,29.15
2023-02-14T21:39:04.556Z,28.20
2023-02-14T21:41:31.932Z,30.80
2023-02-14T21:44:01.185Z,30.27
2023-02-14T21:46:32.575Z,29.60
2023-02-14T21:49:20.385Z,29.10
2023-02-14T21:51:48.385Z,29.15
2023-02-14T21:54:16.625Z,28.80
2023-02-14T21:56:43.963Z,26.55
2023-02-14T21:59:12.192Z,27.08
2023-02-14T22:01:41.677Z,27.88
2023-02-14T22:04:11.274Z,25.73
2023-02-14T22:06:41.791Z,27.48
2023-02-14T22:09:10.857Z,27.45
2023-02-14T22:11:37.882Z,27.58
2023-02-14T22:14:04.899Z,27.70
2023-02-14T22:16:31.971Z,27.60
2023-02-14T22:18:58.835Z,28.65
2023-02-14T22:21:27.131Z,30.98
2023-02-14T22:23:55.346Z,30.13
2023-02-14T22:26:29.136Z,25.73
2023-02-14T22:29:00.123Z,24.83
2023-02-14T22:31:33.277Z,23.85
2023-02-14T22:34:00.157Z,27.08
2023-02-14T22:36:27.016Z,26.27
2023-02-14T22:38:53.778Z,27.73
2023-02-14T22:41:23.959Z,28.20
2023-02-14T22:43:52.923Z,27.75
2023-02-14T22:46:22.671Z,27.63
2023-02-14T22:48:51.211Z,27.08
2023-02-14T22:51:51.846Z,27.25
2023-02-14T22:54:18.632Z,26.17
2023-02-14T22:56:48.292Z,24.83
2023-02-14T22:59:22.997Z,23.88
2023-02-14T23:01:52.304Z,24.48
2023-02-14T23:04:22.031Z,24.98
2023-02-14T23:06:49.275Z,27.35
2023-02-14T23:09:17.422Z,25.85
2023-02-14T23:11:47.049Z,26.10
2023-02-14T23:14:34.457Z,24.70
2023-02-14T23:17:20.548Z,28.63
2023-02-14T23:20:06.139Z,24.00
2023-02-14T23:22:37.076Z,23.08
2023-02-14T23:25:09.169Z,22.08
2023-02-14T23:27:43.415Z,24.65
2023-02-14T23:30:15.811Z,23.50
2023-02-14T23:32:43.010Z,22.73
2023-02-14T23:35:10.605Z,24.30
2023-02-14T23:37:37.539Z,23.48
2023-02-14T23:40:05.002Z,23.15
2023-02-14T23:42:32.000Z,23.50
2023-02-14T23:45:18.764Z,28.35
2023-02-14T23:47:45.652Z,28.52
2023-02-14T23:50:12.448Z,29.58
2023-02-14T23:52:44.821Z,29.08
2023-02-14T23:55:12.969Z,26.60
2023-02-14T23:57:39.894Z,25.73
